Time;durP1;ratioP1;P1;durP2;ratioP2;P2;SDS_P1;SDS_P2;PMS_P1;PMS_P2;Temp;Humidity;BMP_temperature;BMP_pressure;BME280_temperature;BME280_humidity;BME280_pressure;Samples;Min_cycle;Max_cycle;Signal;HPM_P1;HPM_P2
2024/03/05 00:01:39;;;;;;;40.57;22.67;;;7.90;99.90;;;;;;5046282;28;20448;-68
2024/03/05 00:04:07;;;;;;;45.77;21.47;;;7.80;99.90;;;;;;5060081;28;20886;-69
2024/03/05 00:06:37;;;;;;;44.63;22.20;;;7.80;99.90;;;;;;5056221;28;20996;-70
2024/03/05 00:09:05;;;;;;;45.80;22.20;;;7.80;99.90;;;;;;5052374;28;20463;-69
2024/03/05 00:11:33;;;;;;;45.17;23.00;;;7.90;99.90;;;;;;5046558;28;20487;-69
2024/03/05 00:14:01;;;;;;;49.50;23.07;;;7.80;99.90;;;;;;5047083;28;20478;-69
2024/03/05 00:16:29;;;;;;;45.47;21.67;;;7.90;99.90;;;;;;5052363;28;20477;-69
2024/03/05 00:18:57;;;;;;;48.23;23.57;;;7.80;99.90;;;;;;5066295;28;21145;-70
2024/03/05 00:21:25;;;;;;;45.63;22.73;;;7.90;99.90;;;;;;5065586;28;20802;-69
2024/03/05 00:23:54;;;;;;;44.30;22.77;;;7.90;99.90;;;;;;5057628;28;20878;-70
2024/03/05 00:26:25;;;;;;;47.47;23.47;;;7.80;99.90;;;;;;5066629;28;20937;-69
2024/03/05 00:28:55;;;;;;;45.07;23.10;;;7.90;99.90;;;;;;5062570;28;20462;-69
2024/03/05 00:31:24;;;;;;;42.37;23.93;;;7.90;99.90;;;;;;5047206;28;20482;-70
2024/03/05 00:33:52;;;;;;;41.10;22.47;;;8.00;99.90;;;;;;5056615;28;20451;-70
2024/03/05 00:36:20;;;;;;;46.03;22.97;;;8.10;99.90;;;;;;5065361;28;20474;-69
2024/03/05 00:38:48;;;;;;;47.63;23.20;;;8.00;99.90;;;;;;5063439;28;20474;-69
2024/03/05 00:41:18;;;;;;;40.90;21.37;;;8.10;99.90;;;;;;5053576;28;20538;-70
2024/03/05 00:43:46;;;;;;;43.90;22.03;;;8.10;99.90;;;;;;5068032;28;20441;-70
2024/03/05 00:46:16;;;;;;;37.93;18.93;;;8.10;99.90;;;;;;5062728;28;20438;-69
2024/03/05 00:48:44;;;;;;;40.50;21.77;;;8.10;99.90;;;;;;5052874;28;20572;-70
2024/03/05 00:51:12;;;;;;;41.00;24.47;;;8.10;99.90;;;;;;5061473;28;20460;-70
2024/03/05 00:53:40;;;;;;;41.37;22.03;;;8.10;99.90;;;;;;5064807;28;20450;-70
2024/03/05 00:56:08;;;;;;;42.70;22.47;;;8.10;99.90;;;;;;5069537;28;20476;-70
2024/03/05 00:58:37;;;;;;;42.47;20.10;;;8.10;99.90;;;;;;5068702;28;20468;-69
2024/03/05 01:01:07;;;;;;;38.27;22.40;;;8.10;99.90;;;;;;5066727;28;20462;-70
2024/03/05 01:03:35;;;;;;;45.07;22.60;;;8.20;99.90;;;;;;5061725;28;20440;-70
2024/03/05 01:06:03;;;;;;;40.60;21.67;;;8.20;99.90;;;;;;5061009;28;20458;-71
2024/03/05 01:08:32;;;;;;;46.10;22.30;;;8.20;99.90;;;;;;5060006;28;21099;-70
2024/03/05 01:11:01;;;;;;;38.57;21.03;;;8.20;99.90;;;;;;5056918;28;20920;-70
2024/03/05 01:13:29;;;;;;;43.57;22.60;;;8.20;99.90;;;;;;5067579;28;21369;-71
2024/03/05 01:15:58;;;;;;;39.30;21.73;;;8.20;99.90;;;;;;5059552;28;20481;-70
2024/03/05 01:18:26;;;;;;;42.27;22.47;;;8.30;99.90;;;;;;5068294;28;20500;-70
2024/03/05 01:20:54;;;;;;;40.07;22.60;;;8.20;99.90;;;;;;5067704;28;20509;-69
2024/03/05 01:23:24;;;;;;;43.77;21.57;;;8.30;99.90;;;;;;5067146;28;20530;-69
2024/03/05 01:25:52;;;;;;;42.90;20.23;;;8.40;99.90;;;;;;5063313;28;20479;-69
2024/03/05 01:28:20;;;;;;;45.97;22.60;;;8.40;99.90;;;;;;5050444;28;21104;-69
2024/03/05 01:30:48;;;;;;;41.30;21.80;;;8.40;99.90;;;;;;5056347;28;20522;-70
2024/03/05 01:33:20;;;;;;;44.93;23.53;;;8.30;99.90;;;;;;5062411;28;20474;-69
2024/03/05 01:35:49;;;;;;;45.40;22.10;;;8.20;99.90;;;;;;5063640;28;20563;-68
2024/03/05 01:38:17;;;;;;;43.80;24.17;;;8.30;99.90;;;;;;5051935;28;20463;-69
2024/03/05 01:40:45;;;;;;;45.00;23.03;;;8.30;99.90;;;;;;5066592;28;20500;-69
2024/03/05 01:43:14;;;;;;;38.70;20.63;;;8.40;99.90;;;;;;5067117;28;20473;-69
2024/03/05 01:45:43;;;;;;;41.67;21.03;;;8.40;99.90;;;;;;5064688;28;20445;-68
2024/03/05 01:48:12;;;;;;;40.57;22.00;;;8.40;99.90;;;;;;5068584;28;20530;-68
2024/03/05 01:50:43;;;;;;;43.23;21.87;;;8.40;99.90;;;;;;5067078;28;21260;-69
2024/03/05 01:53:15;;;;;;;42.33;20.47;;;8.30;99.90;;;;;;5068320;28;20555;-69
2024/03/05 01:55:44;;;;;;;46.60;22.90;;;8.30;99.90;;;;;;5063028;28;21321;-68
2024/03/05 01:58:17;;;;;;;45.67;24.07;;;8.30;99.90;;;;;;5068573;28;20560;-69
2024/03/05 02:00:46;;;;;;;49.53;23.43;;;8.40;99.90;;;;;;5056068;28;20471;-68
2024/03/05 02:03:15;;;;;;;45.00;21.27;;;8.30;99.90;;;;;;5050533;28;20485;-70
2024/03/05 02:05:46;;;;;;;47.53;23.97;;;8.30;99.90;;;;;;5067008;28;20469;-69
2024/03/05 02:08:15;;;;;;;49.20;24.93;;;8.20;99.90;;;;;;5064022;28;20487;-68
2024/03/05 02:10:48;;;;;;;49.60;23.43;;;8.30;99.90;;;;;;5064993;28;20471;-69
2024/03/05 02:13:16;;;;;;;48.93;22.50;;;8.30;99.90;;;;;;5062512;28;20485;-68
2024/03/05 02:15:44;;;;;;;44.57;22.63;;;8.30;99.90;;;;;;5059137;28;20526;-68
2024/03/05 02:18:13;;;;;;;53.20;24.90;;;8.20;99.90;;;;;;5068202;28;20558;-68
2024/03/05 02:20:41;;;;;;;47.40;23.90;;;8.20;99.90;;;;;;5056390;28;20986;-69
2024/03/05 02:23:10;;;;;;;53.23;22.60;;;8.20;99.90;;;;;;5056339;28;20912;-69
2024/03/05 02:25:38;;;;;;;48.10;23.90;;;8.30;99.90;;;;;;5067097;28;20476;-69
2024/03/05 02:28:08;;;;;;;47.63;23.20;;;8.20;99.90;;;;;;5067959;28;20846;-68
2024/03/05 02:30:36;;;;;;;48.37;22.97;;;8.20;99.90;;;;;;5049275;28;20990;-68
2024/03/05 02:33:06;;;;;;;51.30;22.97;;;8.20;99.90;;;;;;5057636;28;20466;-68
2024/03/05 02:35:34;;;;;;;49.60;24.07;;;8.10;99.90;;;;;;5055102;28;20465;-68
2024/03/05 02:38:05;;;;;;;46.00;21.90;;;8.00;99.90;;;;;;5059801;28;20610;-69
2024/03/05 02:40:34;;;;;;;43.13;22.20;;;7.90;99.90;;;;;;5063635;28;20574;-69
2024/03/05 02:43:02;;;;;;;51.97;24.93;;;7.90;99.90;;;;;;5064743;28;20476;-69
2024/03/05 02:45:30;;;;;;;46.60;24.90;;;7.90;99.90;;;;;;5066445;28;20712;-69
2024/03/05 02:48:02;;;;;;;47.97;23.87;;;7.90;99.90;;;;;;5058883;28;20466;-70
2024/03/05 02:50:31;;;;;;;46.30;24.00;;;7.90;99.90;;;;;;5067240;28;20545;-68
2024/03/05 02:52:58;;;;;;;46.00;23.17;;;7.90;99.90;;;;;;5066199;28;20570;-69
2024/03/05 02:55:27;;;;;;;46.50;23.60;;;7.90;99.90;;;;;;5059856;28;20467;-70
2024/03/05 02:57:56;;;;;;;48.70;22.43;;;8.00;99.90;;;;;;5062584;28;20491;-69
2024/03/05 03:00:24;;;;;;;46.90;23.23;;;8.00;99.90;;;;;;5052479;28;20482;-69
2024/03/05 03:02:52;;;;;;;44.37;24.07;;;7.90;99.90;;;;;;5053602;28;20442;-69
2024/03/05 03:05:22;;;;;;;48.50;24.33;;;7.90;99.90;;;;;;5054710;28;20438;-69
2024/03/05 03:07:50;;;;;;;46.10;24.60;;;7.90;99.90;;;;;;5055125;28;20481;-68
2024/03/05 03:10:19;;;;;;;46.30;24.70;;;7.90;99.90;;;;;;5051004;28;20486;-69
2024/03/05 03:12:48;;;;;;;40.17;21.37;;;7.90;99.90;;;;;;5055695;28;20474;-69
2024/03/05 03:15:18;;;;;;;43.47;22.50;;;7.90;99.90;;;;;;5066448;28;20557;-69
2024/03/05 03:17:47;;;;;;;43.30;22.23;;;7.80;99.90;;;;;;5059897;28;20486;-68
2024/03/05 03:20:15;;;;;;;46.20;23.03;;;7.80;99.90;;;;;;5049773;28;20573;-68
2024/03/05 03:22:44;;;;;;;47.60;24.10;;;7.90;99.90;;;;;;5060095;28;20475;-68
2024/03/05 03:25:12;;;;;;;44.20;21.57;;;7.90;99.90;;;;;;5059360;28;20931;-70
2024/03/05 03:27:41;;;;;;;45.67;24.23;;;7.90;99.90;;;;;;5062486;28;20462;-68
2024/03/05 03:30:17;;;;;;;47.97;22.13;;;7.90;99.90;;;;;;5061086;28;20482;-68
2024/03/05 03:32:46;;;;;;;45.63;23.37;;;7.90;99.90;;;;;;5066212;28;20473;-68
2024/03/05 03:35:15;;;;;;;45.30;21.70;;;7.90;99.90;;;;;;5067106;28;20450;-69
2024/03/05 03:37:43;;;;;;;41.50;21.70;;;7.80;99.90;;;;;;5055386;28;20509;-69
2024/03/05 03:40:17;;;;;;;48.60;21.90;;;7.80;99.90;;;;;;5049348;28;20483;-69
2024/03/05 03:42:46;;;;;;;46.37;22.70;;;7.80;99.90;;;;;;5062779;28;20476;-70
2024/03/05 03:45:14;;;;;;;47.90;23.83;;;7.80;99.90;;;;;;5066501;28;20478;-69
2024/03/05 03:47:43;;;;;;;46.67;23.40;;;8.00;99.90;;;;;;5055339;28;20472;-69
2024/03/05 03:50:12;;;;;;;49.27;24.50;;;7.90;99.90;;;;;;5062149;28;20497;-70
2024/03/05 03:52:43;;;;;;;49.97;23.77;;;7.90;99.90;;;;;;5061169;28;20894;-68
2024/03/05 03:55:11;;;;;;;46.30;22.10;;;7.90;99.90;;;;;;5062949;28;20472;-68
2024/03/05 03:57:39;;;;;;;43.90;24.80;;;8.00;99.90;;;;;;5063395;28;20568;-69
2024/03/05 04:00:09;;;;;;;47.23;26.47;;;8.10;99.90;;;;;;5062629;28;20549;-68
2024/03/05 04:02:37;;;;;;;47.90;24.93;;;8.00;99.90;;;;;;5065353;28;20477;-68
2024/03/05 04:05:09;;;;;;;45.43;24.17;;;7.90;99.90;;;;;;5066637;28;20456;-69
2024/03/05 04:07:39;;;;;;;47.13;22.67;;;7.90;99.90;;;;;;5054684;28;20553;-68
2024/03/05 04:10:10;;;;;;;45.67;23.57;;;7.90;99.90;;;;;;5060284;28;20564;-68
2024/03/05 04:12:38;;;;;;;47.13;23.07;;;7.80;99.90;;;;;;5054046;28;21184;-69
2024/03/05 04:15:08;;;;;;;47.00;23.37;;;7.70;99.90;;;;;;5053579;28;20559;-69
2024/03/05 04:17:37;;;;;;;58.73;26.40;;;7.60;99.90;;;;;;5068001;28;20484;-69
2024/03/05 04:20:08;;;;;;;49.40;23.27;;;7.60;99.90;;;;;;5058798;28;20453;-69
2024/03/05 04:22:40;;;;;;;51.10;24.37;;;7.60;99.90;;;;;;5059830;28;20478;-68
2024/03/05 04:25:09;;;;;;;45.57;22.23;;;7.60;99.90;;;;;;5069732;28;21018;-68
2024/03/05 04:27:45;;;;;;;48.67;24.00;;;7.60;99.90;;;;;;5068525;28;20466;-69
2024/03/05 04:30:13;;;;;;;52.73;24.87;;;7.50;99.90;;;;;;5056309;28;20440;-69
2024/03/05 04:32:46;;;;;;;44.63;21.97;;;7.50;99.90;;;;;;5069495;28;20926;-70
2024/03/05 04:35:26;;;;;;;46.43;23.37;;;7.60;99.90;;;;;;5066282;28;20976;-69
2024/03/05 04:37:55;;;;;;;45.97;23.00;;;7.60;99.90;;;;;;5066665;28;20563;-69
2024/03/05 04:40:24;;;;;;;47.20;21.97;;;7.60;99.90;;;;;;5069448;28;20450;-68
2024/03/05 04:42:52;;;;;;;41.87;20.30;;;7.70;99.90;;;;;;5062287;28;20995;-69
2024/03/05 04:45:20;;;;;;;47.40;22.67;;;7.80;99.90;;;;;;5067194;28;20464;-69
2024/03/05 04:47:49;;;;;;;46.83;21.07;;;7.70;99.90;;;;;;5069531;28;20481;-69
2024/03/05 04:50:17;;;;;;;38.77;19.70;;;7.70;99.90;;;;;;5069208;28;20476;-68
2024/03/05 04:52:46;;;;;;;44.33;22.07;;;7.70;99.90;;;;;;5069985;28;20845;-69
2024/03/05 04:55:15;;;;;;;39.83;22.10;;;7.70;99.90;;;;;;5069037;28;20476;-68
2024/03/05 04:57:43;;;;;;;42.23;22.07;;;7.60;99.90;;;;;;5056299;28;21190;-68
2024/03/05 05:00:20;;;;;;;44.70;21.90;;;7.70;99.90;;;;;;5063262;28;20483;-69
2024/03/05 05:02:50;;;;;;;46.47;26.03;;;7.70;99.90;;;;;;5065056;28;20469;-68
2024/03/05 05:05:19;;;;;;;45.67;21.10;;;7.70;99.90;;;;;;5066629;28;20442;-68
2024/03/05 05:07:47;;;;;;;36.20;19.33;;;7.70;99.90;;;;;;5052770;28;20479;-69
2024/03/05 05:10:17;;;;;;;46.80;25.80;;;7.70;99.90;;;;;;5066052;28;20470;-68
2024/03/05 05:12:46;;;;;;;46.13;23.47;;;7.70;99.90;;;;;;5065856;28;20481;-69
2024/03/05 05:15:14;;;;;;;39.13;20.90;;;7.70;99.90;;;;;;5059592;28;20504;-69
2024/03/05 05:17:44;;;;;;;46.13;24.20;;;7.60;99.90;;;;;;5069482;28;21239;-70
2024/03/05 05:20:15;;;;;;;48.13;22.47;;;7.60;99.90;;;;;;5066652;28;20505;-71
2024/03/05 05:22:44;;;;;;;49.50;24.80;;;7.60;99.90;;;;;;5067426;28;20574;-69
2024/03/05 05:25:14;;;;;;;46.70;23.87;;;7.60;99.90;;;;;;5068754;28;20580;-69
2024/03/05 05:27:44;;;;;;;47.17;24.27;;;7.60;99.90;;;;;;5059034;28;20558;-70
2024/03/05 05:30:14;;;;;;;45.17;22.20;;;7.70;99.90;;;;;;5062187;28;20573;-68
2024/03/05 05:32:42;;;;;;;38.43;20.67;;;7.90;99.90;;;;;;5068578;28;20510;-67
2024/03/05 05:35:10;;;;;;;41.00;21.53;;;7.80;99.90;;;;;;5068865;28;20465;-67
2024/03/05 05:37:38;;;;;;;48.70;23.07;;;7.80;99.90;;;;;;5068805;28;20930;-70
2024/03/05 05:40:10;;;;;;;40.50;22.30;;;7.70;99.90;;;;;;5066335;28;20470;-68
2024/03/05 05:42:38;;;;;;;44.17;22.53;;;7.70;99.90;;;;;;5064598;28;21244;-68
2024/03/05 05:45:09;;;;;;;52.60;24.97;;;7.70;99.90;;;;;;5060777;28;20481;-70
2024/03/05 05:47:42;;;;;;;44.60;22.47;;;7.70;99.90;;;;;;5066878;28;20471;-69
2024/03/05 05:50:18;;;;;;;50.20;24.67;;;7.80;99.90;;;;;;5062805;28;20481;-69
2024/03/05 05:52:48;;;;;;;48.57;23.17;;;7.80;99.90;;;;;;5066334;28;21211;-68
2024/03/05 05:55:19;;;;;;;46.37;23.33;;;7.80;99.90;;;;;;5068670;28;20450;-69
2024/03/05 05:57:47;;;;;;;43.63;22.33;;;7.80;99.90;;;;;;5064833;28;20576;-70
2024/03/05 06:00:31;;;;;;;46.17;23.50;;;7.70;99.90;;;;;;5053741;28;20486;-69
2024/03/05 06:03:00;;;;;;;48.10;23.87;;;7.70;99.90;;;;;;5059197;28;20529;-70
2024/03/05 06:05:31;;;;;;;45.03;24.20;;;7.70;99.90;;;;;;5068186;28;20528;-69
2024/03/05 06:08:00;;;;;;;49.87;23.97;;;7.80;99.90;;;;;;5064101;28;20501;-70
2024/03/05 06:10:29;;;;;;;47.20;23.07;;;7.70;99.90;;;;;;5061151;28;20526;-69
2024/03/05 06:12:58;;;;;;;53.30;25.53;;;7.70;99.90;;;;;;5067996;28;20545;-69
2024/03/05 06:15:29;;;;;;;53.37;26.87;;;7.70;99.90;;;;;;5068331;28;21135;-69
2024/03/05 06:17:58;;;;;;;55.97;24.73;;;7.70;99.90;;;;;;5067280;28;20522;-69
2024/03/05 06:20:27;;;;;;;52.77;24.93;;;7.70;99.90;;;;;;5066110;28;20452;-70
2024/03/05 06:22:57;;;;;;;48.17;24.87;;;7.70;99.90;;;;;;5064478;28;20532;-71
2024/03/05 06:25:26;;;;;;;49.47;24.93;;;7.60;99.90;;;;;;5066139;28;21071;-70
2024/03/05 06:27:55;;;;;;;53.80;25.97;;;7.60;99.90;;;;;;5067016;28;21128;-70
2024/03/05 06:30:23;;;;;;;51.03;23.27;;;7.60;99.90;;;;;;5063237;28;20437;-69
2024/03/05 06:32:52;;;;;;;47.20;25.10;;;7.70;99.90;;;;;;5062612;28;20455;-69
2024/03/05 06:35:22;;;;;;;55.90;27.07;;;7.80;99.90;;;;;;5063624;28;20478;-70
2024/03/05 06:37:51;;;;;;;49.30;26.10;;;8.00;99.90;;;;;;5062181;28;20511;-69
2024/03/05 06:40:22;;;;;;;57.77;27.57;;;8.00;99.90;;;;;;5061507;28;20533;-69
2024/03/05 06:43:03;;;;;;;52.67;25.40;;;7.90;99.90;;;;;;5062203;28;20955;-69
2024/03/05 06:45:34;;;;;;;50.20;24.20;;;7.90;99.90;;;;;;5065774;28;20471;-69
2024/03/05 06:48:08;;;;;;;55.27;25.70;;;7.90;99.90;;;;;;5061773;28;20465;-69
2024/03/05 06:50:51;;;;;;;55.07;27.13;;;7.90;99.90;;;;;;5065766;28;20819;-69
2024/03/05 06:58:50;;;;;;;56.03;27.40;;;7.90;99.90;;;;;;5062921;28;20563;-69
2024/03/05 07:01:19;;;;;;;52.63;26.77;;;7.80;99.90;;;;;;5062099;28;20460;-70
2024/03/05 07:03:50;;;;;;;59.73;25.60;;;7.80;99.90;;;;;;5066083;28;20452;-69
2024/03/05 07:06:18;;;;;;;52.27;24.40;;;7.80;99.90;;;;;;5067577;28;20926;-69
2024/03/05 07:08:48;;;;;;;49.73;23.07;;;7.80;99.90;;;;;;5067167;28;20582;-70
2024/03/05 07:11:17;;;;;;;55.03;25.40;;;7.80;99.90;;;;;;5066788;28;20958;-70
2024/03/05 07:13:48;;;;;;;48.20;24.97;;;7.90;99.90;;;;;;5067432;28;20453;-69
2024/03/05 07:16:17;;;;;;;45.30;22.50;;;7.90;99.90;;;;;;5060337;28;20442;-69
2024/03/05 07:18:48;;;;;;;43.33;20.83;;;7.90;99.90;;;;;;5047855;28;20489;-70
2024/03/05 07:21:21;;;;;;;49.87;23.50;;;8.10;99.90;;;;;;5051543;28;20452;-69
2024/03/05 07:23:50;;;;;;;45.03;22.23;;;8.10;99.90;;;;;;5046983;28;20517;-69
2024/03/05 07:26:18;;;;;;;55.30;22.57;;;8.20;99.90;;;;;;5046646;28;20465;-70
2024/03/05 07:28:47;;;;;;;55.90;23.93;;;8.20;99.90;;;;;;5046785;28;20914;-71
2024/03/05 07:31:16;;;;;;;47.07;23.37;;;8.10;99.90;;;;;;5046083;28;20464;-71
2024/03/05 07:33:46;;;;;;;47.47;22.10;;;8.00;99.90;;;;;;5046988;28;20508;-71
2024/03/05 07:36:21;;;;;;;52.73;24.80;;;8.00;99.90;;;;;;5060944;28;20622;-70
2024/03/05 07:38:52;;;;;;;44.13;22.90;;;8.10;99.90;;;;;;5067204;28;20487;-71
2024/03/05 07:41:20;;;;;;;49.97;24.03;;;8.10;99.90;;;;;;5066756;28;20535;-70
2024/03/05 07:44:00;;;;;;;44.60;21.37;;;8.10;99.90;;;;;;5066718;28;20859;-70
2024/03/05 07:46:29;;;;;;;43.73;24.07;;;8.00;99.90;;;;;;5066849;28;20457;-70
2024/03/05 07:48:58;;;;;;;42.53;21.00;;;8.10;99.90;;;;;;5065657;28;20466;-69
2024/03/05 07:51:30;;;;;;;47.40;21.47;;;8.10;99.90;;;;;;5058786;28;20538;-70
2024/03/05 07:54:12;;;;;;;39.67;22.90;;;8.00;99.90;;;;;;5046921;28;20436;-70
2024/03/05 07:56:40;;;;;;;43.90;22.90;;;8.00;99.90;;;;;;5046751;28;20446;-69
2024/03/05 07:59:08;;;;;;;49.33;23.77;;;8.00;99.90;;;;;;5046506;28;21277;-70
2024/03/05 08:01:37;;;;;;;43.17;21.80;;;8.10;99.90;;;;;;5046588;28;20448;-68
2024/03/05 08:04:05;;;;;;;50.87;24.53;;;8.20;99.90;;;;;;5046929;28;20445;-70
2024/03/05 08:06:35;;;;;;;43.77;22.70;;;8.20;99.90;;;;;;5050732;28;20815;-69
2024/03/05 08:09:03;;;;;;;50.20;23.40;;;8.20;99.90;;;;;;5065546;28;20564;-70
2024/03/05 08:11:31;;;;;;;49.17;24.03;;;8.30;99.90;;;;;;5066108;28;20994;-67
2024/03/05 08:14:03;;;;;;;42.87;23.57;;;8.30;99.90;;;;;;5068049;28;20441;-70
2024/03/05 08:16:33;;;;;;;43.40;21.27;;;8.30;99.90;;;;;;5063907;28;20511;-67
2024/03/05 08:19:03;;;;;;;48.67;23.40;;;8.30;99.90;;;;;;5062713;28;20492;-69
2024/03/05 08:21:32;;;;;;;50.23;23.73;;;8.40;99.90;;;;;;5064282;28;20562;-69
2024/03/05 08:24:02;;;;;;;57.93;26.37;;;8.30;99.90;;;;;;5063997;28;20481;-69
2024/03/05 08:26:30;;;;;;;48.40;24.27;;;8.10;99.90;;;;;;5049313;28;20481;-67
2024/03/05 08:28:58;;;;;;;54.90;24.83;;;8.00;99.90;;;;;;5046001;28;20527;-68
2024/03/05 08:31:26;;;;;;;40.23;19.90;;;8.00;99.90;;;;;;5046325;28;20452;-68
2024/03/05 08:33:54;;;;;;;40.43;18.20;;;7.90;99.90;;;;;;5046827;28;20455;-68
2024/03/05 08:36:25;;;;;;;32.00;13.80;;;7.80;99.90;;;;;;5046630;28;20966;-68
2024/03/05 08:38:53;;;;;;;30.00;13.20;;;7.70;99.90;;;;;;5051267;28;20883;-67
2024/03/05 08:41:23;;;;;;;22.87;10.20;;;7.50;99.90;;;;;;5066363;28;20457;-69
2024/03/05 08:43:51;;;;;;;18.77;8.70;;;7.30;99.90;;;;;;5066284;28;20453;-70
2024/03/05 08:46:20;;;;;;;15.83;6.30;;;7.30;99.90;;;;;;5066367;28;20536;-69
2024/03/05 08:48:48;;;;;;;20.63;7.50;;;7.30;99.90;;;;;;5060839;28;20496;-71
2024/03/05 08:51:17;;;;;;;18.53;6.90;;;7.30;99.90;;;;;;5060345;28;20443;-70
2024/03/05 08:53:45;;;;;;;18.20;7.70;;;7.40;99.90;;;;;;5059141;28;20443;-69
2024/03/05 08:56:13;;;;;;;20.23;8.17;;;7.40;99.90;;;;;;5066203;28;20451;-69
2024/03/05 08:58:43;;;;;;;17.83;7.50;;;7.50;99.90;;;;;;5066898;28;20945;-69
2024/03/05 09:01:12;;;;;;;19.57;7.17;;;7.50;99.90;;;;;;5068541;28;20493;-67
2024/03/05 09:03:41;;;;;;;21.23;8.17;;;7.50;99.90;;;;;;5068900;28;20442;-69
2024/03/05 09:06:09;;;;;;;18.07;8.43;;;7.60;99.90;;;;;;5056646;28;20452;-67
2024/03/05 09:08:40;;;;;;;23.47;9.67;;;7.60;99.90;;;;;;5052400;28;21350;-69
2024/03/05 09:11:08;;;;;;;24.00;9.60;;;7.60;99.90;;;;;;5058532;28;20446;-69
2024/03/05 09:13:36;;;;;;;24.13;10.37;;;7.60;99.90;;;;;;5049716;28;20484;-69
2024/03/05 09:16:06;;;;;;;17.20;8.10;;;7.60;99.90;;;;;;5049944;28;20440;-68
2024/03/05 09:18:34;;;;;;;19.63;9.80;;;7.60;99.90;;;;;;5049847;28;20878;-68
2024/03/05 09:21:02;;;;;;;20.10;7.90;;;7.70;99.90;;;;;;5049545;28;20498;-69
2024/03/05 09:23:30;;;;;;;23.27;9.97;;;7.70;99.90;;;;;;5049789;28;20444;-68
2024/03/05 09:25:58;;;;;;;17.70;8.57;;;7.70;99.90;;;;;;5053311;28;20467;-68
2024/03/05 09:28:26;;;;;;;20.30;9.90;;;7.70;99.90;;;;;;5053593;28;20579;-68
2024/03/05 09:30:56;;;;;;;25.13;10.83;;;7.80;99.90;;;;;;5049726;28;20444;-68
2024/03/05 09:33:26;;;;;;;20.20;9.17;;;7.80;99.90;;;;;;5049703;28;20459;-68
2024/03/05 09:35:54;;;;;;;23.17;9.57;;;7.90;99.90;;;;;;5049260;28;20506;-69
2024/03/05 09:38:22;;;;;;;22.50;10.20;;;7.80;99.90;;;;;;5049292;28;20472;-69
2024/03/05 09:40:51;;;;;;;22.10;9.77;;;7.90;99.90;;;;;;5048746;28;20489;-69
2024/03/05 09:43:22;;;;;;;20.60;9.20;;;7.90;99.90;;;;;;5056768;28;20452;-70
2024/03/05 09:45:52;;;;;;;19.63;9.43;;;7.90;99.90;;;;;;5068022;28;20941;-69
2024/03/05 09:48:22;;;;;;;20.20;9.00;;;7.90;99.90;;;;;;5068987;28;20524;-68
2024/03/05 09:50:51;;;;;;;18.00;8.37;;;8.00;99.90;;;;;;5068486;28;20483;-70
2024/03/05 09:53:19;;;;;;;21.40;9.60;;;8.00;99.90;;;;;;5068672;28;20517;-70
2024/03/05 09:55:51;;;;;;;19.13;9.00;;;8.00;99.90;;;;;;5067109;28;20538;-69
2024/03/05 09:58:33;;;;;;;18.87;9.50;;;8.00;99.90;;;;;;5058693;28;20469;-69
2024/03/05 10:01:02;;;;;;;18.13;9.03;;;7.90;99.90;;;;;;5069484;28;20484;-69
2024/03/05 10:03:31;;;;;;;20.70;9.93;;;7.80;99.90;;;;;;5069435;28;20477;-69
2024/03/05 10:06:00;;;;;;;19.73;9.03;;;7.80;99.90;;;;;;5058029;28;20439;-69
2024/03/05 10:08:28;;;;;;;23.60;11.90;;;7.80;99.90;;;;;;5049874;28;20491;-69
2024/03/05 10:11:02;;;;;;;23.63;9.70;;;7.80;99.90;;;;;;5048565;28;20471;-70
2024/03/05 10:13:35;;;;;;;20.40;9.43;;;7.90;99.90;;;;;;5053558;28;20992;-69
2024/03/05 10:16:17;;;;;;;23.77;12.03;;;7.90;99.90;;;;;;5061698;28;20445;-70
2024/03/05 10:18:46;;;;;;;19.67;10.80;;;8.00;99.90;;;;;;5069411;28;20475;-69
2024/03/05 10:21:24;;;;;;;22.00;10.60;;;8.00;99.90;;;;;;5069005;28;21168;-67
2024/03/05 10:23:58;;;;;;;18.90;9.57;;;8.00;99.90;;;;;;5069518;28;20443;-70
2024/03/05 10:26:27;;;;;;;23.47;10.30;;;8.00;99.90;;;;;;5068826;28;20528;-69
2024/03/05 10:28:58;;;;;;;19.00;10.03;;;8.00;99.90;;;;;;5068883;28;20982;-69
2024/03/05 10:31:27;;;;;;;22.33;11.10;;;8.10;99.90;;;;;;5068390;28;20554;-67
2024/03/05 10:33:58;;;;;;;25.50;13.53;;;8.30;99.90;;;;;;5069008;28;20462;-70
2024/03/05 10:36:29;;;;;;;22.03;11.07;;;8.30;99.90;;;;;;5068921;28;20444;-69
2024/03/05 10:38:58;;;;;;;22.00;10.53;;;8.30;99.90;;;;;;5068660;28;20476;-69
2024/03/05 10:41:29;;;;;;;19.00;9.33;;;8.10;99.90;;;;;;5068808;28;20486;-69
2024/03/05 10:44:14;;;;;;;21.40;10.60;;;8.00;99.90;;;;;;5068706;28;21230;-69
2024/03/05 10:46:45;;;;;;;21.50;11.70;;;8.00;99.90;;;;;;5068387;28;20512;-70
2024/03/05 10:49:17;;;;;;;22.80;12.23;;;8.00;99.90;;;;;;5068293;28;20475;-68
2024/03/05 10:51:48;;;;;;;20.00;8.57;;;8.00;99.90;;;;;;5067940;28;20431;-68
2024/03/05 10:54:17;;;;;;;17.60;9.37;;;8.10;99.90;;;;;;5068353;28;20439;-69
2024/03/05 10:56:45;;;;;;;16.27;8.43;;;8.20;99.90;;;;;;5050703;28;20547;-70
2024/03/05 10:59:29;;;;;;;16.63;7.87;;;8.30;99.90;;;;;;5048200;28;20983;-69
2024/03/05 11:01:59;;;;;;;15.80;6.57;;;8.40;99.90;;;;;;5054805;28;20851;-69
2024/03/05 11:04:31;;;;;;;13.77;6.63;;;8.50;99.90;;;;;;5066062;28;20945;-68
2024/03/05 11:07:05;;;;;;;12.97;7.07;;;8.70;99.90;;;;;;5063716;28;20451;-68
2024/03/05 11:09:36;;;;;;;13.73;5.83;;;8.80;99.90;;;;;;5063811;28;20466;-67
2024/03/05 11:12:08;;;;;;;14.57;7.20;;;8.80;99.90;;;;;;5061994;28;20798;-68
2024/03/05 11:14:37;;;;;;;14.60;6.23;;;9.00;99.90;;;;;;5061501;28;20462;-67
2024/03/05 11:17:09;;;;;;;12.97;5.93;;;9.00;99.90;;;;;;5061084;28;20981;-67
2024/03/05 11:19:40;;;;;;;12.13;5.20;;;9.00;99.90;;;;;;5067881;28;20554;-70
2024/03/05 11:22:24;;;;;;;12.10;5.67;;;8.80;99.90;;;;;;5055368;28;20484;-69
2024/03/05 11:24:56;;;;;;;12.00;5.40;;;8.90;99.90;;;;;;5047793;28;20445;-66
2024/03/05 11:27:25;;;;;;;12.00;5.40;;;9.00;99.90;;;;;;5048065;28;21080;-66
2024/03/05 11:30:05;;;;;;;13.27;6.10;;;9.20;99.90;;;;;;5052775;28;20454;-66
2024/03/05 11:32:34;;;;;;;12.30;6.30;;;9.40;99.90;;;;;;5047437;28;20446;-68
2024/03/05 11:35:03;;;;;;;10.90;5.17;;;9.60;99.90;;;;;;5063334;28;21021;-67
2024/03/05 11:37:52;;;;;;;12.33;4.90;;;9.50;99.90;;;;;;5067924;28;20445;-67
2024/03/05 11:40:22;;;;;;;11.40;4.40;;;9.50;99.90;;;;;;5066449;28;20510;-66
2024/03/05 11:42:54;;;;;;;10.70;4.83;;;9.40;99.90;;;;;;5062492;28;20433;-67
2024/03/05 11:45:45;;;;;;;9.93;4.13;;;9.30;99.90;;;;;;5063758;28;20450;-66
2024/03/05 11:48:15;;;;;;;12.80;4.63;;;9.10;99.90;;;;;;5066581;28;20489;-67
2024/03/05 11:50:44;;;;;;;13.70;5.40;;;9.00;99.90;;;;;;5062830;28;20531;-67
2024/03/05 11:53:13;;;;;;;11.63;4.70;;;8.90;99.90;;;;;;5053888;28;20484;-68
2024/03/05 11:55:42;;;;;;;11.73;4.77;;;9.00;99.90;;;;;;5049089;28;20446;-68
2024/03/05 11:58:10;;;;;;;11.33;5.00;;;9.00;99.90;;;;;;5050220;28;20461;-68
2024/03/05 12:00:39;;;;;;;10.30;4.20;;;9.10;99.90;;;;;;5064012;28;20448;-67
2024/03/05 12:03:07;;;;;;;12.97;4.60;;;9.00;99.90;;;;;;5062631;28;20444;-67
2024/03/05 12:05:35;;;;;;;10.80;3.77;;;9.00;99.90;;;;;;5064778;28;20450;-67
2024/03/05 12:08:06;;;;;;;11.17;4.17;;;9.10;99.90;;;;;;5066134;28;20517;-67
2024/03/05 12:10:39;;;;;;;9.97;3.80;;;9.10;99.90;;;;;;5066034;28;20441;-68
2024/03/05 12:13:07;;;;;;;9.57;3.60;;;9.10;99.90;;;;;;5064459;28;21114;-67
2024/03/05 12:15:36;;;;;;;10.53;4.60;;;9.10;99.90;;;;;;5064703;28;20436;-67
2024/03/05 12:18:08;;;;;;;11.83;5.30;;;9.00;99.90;;;;;;5063551;28;20476;-68
2024/03/05 12:20:37;;;;;;;9.90;4.20;;;9.00;99.90;;;;;;5060647;28;20431;-68
2024/03/05 12:23:07;;;;;;;10.10;3.90;;;9.00;99.90;;;;;;5063415;28;20563;-67
2024/03/05 12:25:36;;;;;;;9.30;4.00;;;9.00;99.90;;;;;;5064935;28;20794;-68
2024/03/05 12:28:06;;;;;;;11.43;4.30;;;9.00;99.90;;;;;;5063261;28;21148;-68
2024/03/05 12:30:35;;;;;;;12.23;3.90;;;9.00;99.90;;;;;;5064832;28;20465;-67
2024/03/05 12:33:04;;;;;;;11.43;3.83;;;9.00;99.90;;;;;;5064461;28;20423;-68
2024/03/05 12:35:34;;;;;;;9.30;3.10;;;9.00;99.90;;;;;;5068353;28;20493;-68
2024/03/05 12:38:04;;;;;;;10.97;3.63;;;9.00;99.90;;;;;;5069939;28;20479;-68
2024/03/05 12:40:32;;;;;;;10.00;3.10;;;9.00;99.90;;;;;;5070230;28;20447;-69
2024/03/05 12:43:08;;;;;;;10.27;3.97;;;9.10;99.90;;;;;;5070034;28;20482;-67
2024/03/05 12:45:37;;;;;;;9.93;3.40;;;9.00;99.90;;;;;;5070178;28;20537;-67
2024/03/05 12:48:08;;;;;;;14.07;5.00;;;9.00;99.90;;;;;;5069958;28;20594;-68
2024/03/05 12:50:36;;;;;;;9.60;3.90;;;9.10;99.90;;;;;;5070051;28;20470;-68
2024/03/05 12:53:05;;;;;;;12.43;3.77;;;9.30;99.90;;;;;;5069950;28;20452;-68
2024/03/05 12:55:34;;;;;;;11.43;4.33;;;9.50;99.90;;;;;;5070386;28;20524;-69
2024/03/05 12:58:06;;;;;;;9.57;3.73;;;9.70;99.90;;;;;;5070187;28;20468;-68
2024/03/05 13:00:38;;;;;;;9.07;3.13;;;10.00;99.90;;;;;;5069660;28;20891;-67